createdAt,value
2022-08-20T00:02:13.277Z,61.23
2022-08-20T00:07:12.800Z,61.60
2022-08-20T00:12:14.388Z,61.97
2022-08-20T00:17:13.054Z,62.35
2022-08-20T00:22:12.353Z,62.67
2022-08-20T00:27:11.494Z,63.03
2022-08-20T00:32:12.129Z,63.19
2022-08-20T00:37:11.103Z,63.50
2022-08-20T00:42:11.590Z,63.92
2022-08-20T00:47:10.692Z,64.07
2022-08-20T00:52:15.727Z,64.30
2022-08-20T00:57:28.028Z,64.50
2022-08-20T01:02:43.431Z,64.67
2022-08-20T01:07:42.818Z,64.86
2022-08-20T01:12:46.644Z,65.03
2022-08-20T01:17:50.840Z,65.21
2022-08-20T01:23:31.597Z,65.39
2022-08-20T01:28:39.277Z,65.81
2022-08-20T01:33:39.053Z,65.87
2022-08-20T01:38:39.454Z,65.94
2022-08-20T01:43:38.980Z,66.08
2022-08-20T01:48:39.839Z,66.23
2022-08-20T01:53:45.363Z,66.39
2022-08-20T01:58:51.493Z,66.55
2022-08-20T02:03:57.330Z,66.71
2022-08-20T02:09:00.319Z,66.82
2022-08-20T02:14:00.542Z,67.07
2022-08-20T02:19:10.118Z,67.18
2022-08-20T02:24:11.080Z,67.37
2022-08-20T02:29:13.753Z,67.56
2022-08-20T02:34:22.713Z,67.74
2022-08-20T02:39:21.659Z,67.94
2022-08-20T02:44:21.851Z,68.22
2022-08-20T02:49:21.396Z,68.40
2022-08-20T02:54:20.689Z,68.54
2022-08-20T02:59:20.169Z,68.81
2022-08-20T03:04:19.082Z,68.89
2022-08-20T03:09:23.774Z,69.04
2022-08-20T03:14:22.341Z,69.26
2022-08-20T03:19:21.177Z,69.50
2022-08-20T03:24:20.337Z,69.60
2022-08-20T03:29:18.592Z,69.71
2022-08-20T03:34:17.461Z,69.80
2022-08-20T03:39:16.893Z,69.96
2022-08-20T03:44:16.366Z,70.08
2022-08-20T03:49:16.918Z,70.17
2022-08-20T03:54:15.477Z,70.25
2022-08-20T03:59:14.732Z,70.21
2022-08-20T04:04:14.289Z,70.23
2022-08-20T04:09:13.173Z,70.21
2022-08-20T04:14:17.432Z,70.36
2022-08-20T04:19:18.168Z,70.25
2022-08-20T04:24:22.614Z,70.32
2022-08-20T04:29:35.271Z,70.40
2022-08-20T04:34:34.374Z,70.21
2022-08-20T04:39:34.456Z,70.11
2022-08-20T04:44:33.468Z,70.27
2022-08-20T04:49:32.742Z,70.34
2022-08-20T04:54:31.592Z,70.04
2022-08-20T04:59:30.588Z,69.84
2022-08-20T05:04:29.712Z,69.73
2022-08-20T05:09:28.541Z,69.35
2022-08-20T05:14:28.073Z,69.17
2022-08-20T05:19:29.220Z,69.05
2022-08-20T05:24:28.806Z,68.87
2022-08-20T05:29:29.069Z,68.69
2022-08-20T05:34:28.241Z,68.63
2022-08-20T05:39:27.469Z,68.56
2022-08-20T05:44:25.909Z,68.43
2022-08-20T05:49:25.815Z,68.36
2022-08-20T05:54:25.152Z,68.39
2022-08-20T05:59:24.457Z,68.17
2022-08-20T06:04:28.260Z,68.01
2022-08-20T06:09:32.028Z,67.57
2022-08-20T06:14:33.784Z,67.24
2022-08-20T06:19:33.301Z,67.39
2022-08-20T06:24:32.539Z,66.96
2022-08-20T06:29:33.330Z,66.53
2022-08-20T06:34:32.220Z,66.32
2022-08-20T06:39:32.351Z,66.04
2022-08-20T06:44:31.944Z,65.93
2022-08-20T06:49:35.274Z,65.53
2022-08-20T06:54:35.584Z,64.96
2022-08-20T06:59:34.344Z,64.49
2022-08-20T07:04:33.002Z,64.13
2022-08-20T07:09:32.006Z,63.60
2022-08-20T07:14:32.095Z,63.44
2022-08-20T07:19:31.616Z,63.49
2022-08-20T07:24:33.283Z,63.26
2022-08-20T07:29:47.641Z,62.79
2022-08-20T07:34:46.923Z,62.41
2022-08-20T07:39:51.514Z,61.91
2022-08-20T07:44:51.234Z,61.56
2022-08-20T07:49:50.140Z,61.38
2022-08-20T07:54:49.259Z,61.01
2022-08-20T07:59:48.986Z,60.51
2022-08-20T08:04:48.323Z,60.19
2022-08-20T08:09:48.891Z,60.11
2022-08-20T08:14:50.147Z,59.44
2022-08-20T08:19:53.185Z,58.61
2022-08-20T08:24:57.088Z,57.87
2022-08-20T08:29:56.774Z,57.63
2022-08-20T08:34:55.472Z,57.47
2022-08-20T08:39:56.049Z,56.98
2022-08-20T08:44:55.913Z,56.68
2022-08-20T08:50:00.799Z,57.09
2022-08-20T08:55:03.594Z,57.00
2022-08-20T09:00:10.171Z,56.37
2022-08-20T09:05:19.229Z,56.01
2022-08-20T09:10:23.196Z,55.83
2022-08-20T09:15:24.248Z,56.16
2022-08-20T09:20:26.920Z,56.62
2022-08-20T09:25:27.006Z,56.44
2022-08-20T09:30:27.300Z,55.94
2022-08-20T09:35:26.449Z,55.40
2022-08-20T09:40:25.979Z,55.34
2022-08-20T09:45:25.776Z,54.53
2022-08-20T09:50:24.362Z,53.44
2022-08-20T09:55:32.262Z,52.23
2022-08-20T10:00:32.143Z,51.19
2022-08-20T10:05:31.760Z,50.65
2022-08-20T10:10:30.999Z,49.96
2022-08-20T10:15:30.738Z,49.25
2022-08-20T10:20:30.362Z,47.99
2022-08-20T10:25:30.021Z,47.01
2022-08-20T10:30:29.605Z,46.17
2022-08-20T10:35:29.483Z,46.16
2022-08-20T10:40:28.861Z,45.31
2022-08-20T10:45:29.144Z,43.39
2022-08-20T10:50:30.482Z,43.04
2022-08-20T10:55:30.056Z,42.56
2022-08-20T11:00:33.856Z,41.60
2022-08-20T11:05:33.942Z,40.85
2022-08-20T11:10:36.934Z,41.28
2022-08-20T11:15:43.447Z,41.49
2022-08-20T11:20:42.297Z,41.15
2022-08-20T11:25:41.292Z,40.26
2022-08-20T11:30:41.911Z,40.67
2022-08-20T11:35:48.852Z,40.34
2022-08-20T11:40:48.975Z,38.86
2022-08-20T11:45:51.104Z,37.72
2022-08-20T11:50:50.940Z,37.06
2022-08-20T11:55:50.152Z,36.87
2022-08-20T12:00:49.628Z,36.71
2022-08-20T12:05:50.230Z,35.90
2022-08-20T12:10:49.522Z,35.29
2022-08-20T12:15:50.266Z,35.14
2022-08-20T12:20:48.920Z,34.53
2022-08-20T12:25:49.802Z,33.76
2022-08-20T12:30:48.786Z,33.01
